AirNav   Everest Fuels
 
 422 users online  

C64 Cayuse Creek USFS Airport
Cayuse Creek, Idaho, USA

GOING TO CAYUSE CREEK?


FAA INFORMATION EFFECTIVE 26 MARCH 2020

Location

FAA Identifier: C64
Lat/Long: 46-39-59.7030N 115-04-23.4520W
46-39.995050N 115-04.390867W
46.6665842,-115.0731811
(estimated)
Elevation: 3505 ft. / 1068.3 m (surveyed)
Variation: 18E (1985)
From city: ARPT LCTD 4 MILES S OF OLD KELLY CREEK RANGER STATION.
Time zone: UTC -7 (UTC -8 during Standard Time)
Zip code: 59820

Airport Operations

Airport use: Open to the public
Activation date: 03/1945
Control tower: no
ARTCC: SEATTLE CENTER
FSS: BOISE FLIGHT SERVICE STATION
NOTAMs facility: BOI (NOTAM-D service available)
Attendance: UNATNDD
Wind indicator: yes
Segmented circle: yes
NON STD SEGMENTED CIRCLE.

Airport Communications

CTAF: 122.9

Airport Services

Airframe service: NONE
Powerplant service: NONE
Bottled oxygen: NONE
Bulk oxygen: NONE

Runway Information

Runway 4/22

Dimensions: 1800 x 75 ft. / 549 x 23 m
Surface: turf, in fair condition
Runway edge markings: RY THLDS MKD WITH CONC "T".
RUNWAY 4  RUNWAY 22
Traffic pattern: leftleft
Runway end identifier lights: nono
Obstructions: 60 ft. tree, 150 ft. from runway, 120 ft. right of centerline, 2:1 slope to clear50 ft. trees, 85 ft. right of centerline

Airport Ownership and Management from official FAA records

Ownership: Publicly-owned
Owner: US FOREST SERVICE
12730 HWY 12
OROFINO, ID 83544
Phone 208-476-4541
Manager: ANDREW SKOWLAND
12730 HWY 12
OROFINO, ID 83544
Phone 208-476-4541

Airport Operational Statistics

Aircraft operations: avg 42/month *
100% transient general aviation
* for 12-month period ending 30 August 2019

Additional Remarks

RCMD LDG RWY 22 & RWY 04 IF WX ALLOWS.
RECOMMENDED FOR USE ONLY TO EXPERIENCED PILOTS WITH EARLY MORNING & LATE EVENING OPNS DURG SUMMER MONTHS.
NO WINTER MAINTENANCE.
TREES ON APPROACH BOTH ENDS.
BIG GAME ANIMALS AND STOCK ON AND INVOF RY.
FOR CD CTC SEATTLE ARTCC AT 253-351-3694.

Instrument Procedures

There are no published instrument procedures at C64.

Some nearby airports with instrument procedures:

32S - Stevensville Airport (43 nm E)
KMSO - Missoula International Airport (43 nm E)
6S5 - Ravalli County Airport (46 nm SE)
KGIC - Idaho County Airport (61 nm SW)
7S0 - Ronan Airport (67 nm NE)
 
Loc | Ops | Rwys | IFR | FBO | Links
Com | Nav | Svcs | Stats | Notes
Area around C64 (Cayuse Creek USFS Airport)
 
Road maps at: MapQuest Bing Google
 
Aerial photo
No photo
 
Sectional chart

 
Airport distance calculator
Flying to Cayuse Creek USFS Airport? Find the distance to fly.

From to C64

Sunrise and sunset
Times for 28-Mar-2020
 Local
(UTC-7)
 Zulu
(UTC)
Morning civil twilight05:5612:56
Sunrise06:2613:26
Sunset19:0402:04
Evening civil twilight19:3402:34

Current date and time
Zulu (UTC)  29-Mar-2020 05:28:59
Local (UTC-7)  28-Mar-2020 22:28:59
 
METAR
KP69 
38nm SW 
290452Z AUTO 35004KT 07/04 A2999 RMK AO1 SLP167 T00670044
KMSO 
43nm E 
290453Z AUTO 00000KT 10SM OVC055 07/M02 A2994 RMK AO2 SLP151 T00671017
K6S5 
46nm SE 
290515Z AUTO 18009KT 10SM BKN060 BKN080 OVC095 06/M02 A2995 RMK AO2
TAF
KMSO 
43nm E 
282201Z 2822/2918 36007KT P6SM VCSH BKN050 OVC070 FM290300 35007KT P6SM SCT060 BKN080 FM291300 11005KT P6SM VCSH BKN050
NOTAMs
Click for the latest NOTAMs
NOTAMs are issued by the DoD/FAA and will open in a separate window not controlled by AirNav.

 

 
 

Would you like to see your business listed on this page?

 If your business provides an interesting product or service to pilots, flight crews, aircraft, or users of the Cayuse Creek USFS Airport, you should consider listing it here.  To start the listing process, click on the button below
 
Add a business
 

Other Pages about Cayuse Creek USFS Airport

www.flyidaho.org/...
 
Update a link
 
Copyright © AirNav, LLC. All rights reserved. Privacy Policy  Contact